Hardin, MT (59034)

5:38 PM MDT on September 01, 2015 (GMT -0600)
Billings Logan International | | Change Station
CLOSE
Current Station
Airport
Location: Billings,
Elevation: 3570 ft
Nearby Weather Stations

Elev 3570 ft 45.81 °N, 108.54 °W | Updated 45 minutes ago

Clear
Clear
90 °F
Feels Like 90 °F
N
5
Wind Variable Wind from Variable

Today
High -- | Low -- °F
--% Chance of Precip.
Yesterday
High -- | Low -- °F
Precip. -- in
6:31 AM 7:48 PM
Waning Gibbous, 85% visible
Pressure 29.69 in
Visibility 10.0 miles
Clouds Few 12000 ft
Few 17000 ft
Dew Point 26 °F
Humidity 10%
Rainfall 0.00 in
Snow Depth Not available.
UV 3 out of 12
Pollen 9.10 out of 12
Air Quality Not available.
Flu Activity Not available.
METAR KBIL 012253Z VRB04KT 10SM FEW120 FEW170 32/M03 A2980 RMK AO2 SLP054 T03221033
Pressure 29.69 in
Visibility 10.0 miles
Clouds Few 12000 ft
Few 17000 ft
Dew Point 26 °F
Humidity 10%
Rainfall 0.00 in
Snow Depth Not available.
UV 3 out of 12
Pollen 9.10 out of 12
Air Quality Not available.
Flu Activity Not available.
METAR KBIL 012253Z VRB04KT 10SM FEW120 FEW170 32/M03 A2980 RMK AO2 SLP054 T03221033

10-Day Weather Forecast

×

Almanac

Astronomy

Sep. 01, 2015 Rise Set
Actual Time
Civil Twilight
Nautical Twilight
Astronomical Twilight
Moon
Length of Visible Light
Length of Day
Tomorrow will be .
, % of the Moon is Illuminated

Today's Extremes

State Highs State Lows

Community

WunderPhotos

Upload Photos

1,851,643 photos uploaded!

WunderBlogs® & News

Nearby

Air Quality

  Air Quality AQ Index Pollutant
Not available.

Snow Depth

Station Depth Elevation

Earthquake Activity

City Distance Mag. Time & Date
Minimum magnitude displayed is 2.5.

Coastal Water Temperatures

Place Temperature

Stations

Nearby Weather Stations

Station Location Temp. Windchill Dew Point Humidity Wind Precip. Elev Updated Type